sensor_id;sensor_type;location;lat;lon;timestamp;P1;durP1;ratioP1;P2;durP2;ratioP2
83199;SDS011;73092;49.132;8.920;2023-12-20T00:02:19;9.73;;;6.00;;
83199;SDS011;73092;49.132;8.920;2023-12-20T00:04:44;7.70;;;5.67;;
83199;SDS011;73092;49.132;8.920;2023-12-20T00:07:10;9.57;;;6.50;;
83199;SDS011;73092;49.132;8.920;2023-12-20T00:09:35;11.33;;;5.60;;
83199;SDS011;73092;49.132;8.920;2023-12-20T00:12:00;12.20;;;6.73;;
83199;SDS011;73092;49.132;8.920;2023-12-20T00:14:26;9.63;;;6.07;;
83199;SDS011;73092;49.132;8.920;2023-12-20T00:16:51;13.67;;;6.67;;
83199;SDS011;73092;49.132;8.920;2023-12-20T00:19:16;10.20;;;6.57;;
83199;SDS011;73092;49.132;8.920;2023-12-20T00:21:42;14.73;;;7.40;;
83199;SDS011;73092;49.132;8.920;2023-12-20T00:24:07;13.98;;;7.07;;
83199;SDS011;73092;49.132;8.920;2023-12-20T00:26:33;14.63;;;7.05;;
83199;SDS011;73092;49.132;8.920;2023-12-20T00:28:59;10.63;;;5.93;;
83199;SDS011;73092;49.132;8.920;2023-12-20T00:31:27;13.60;;;7.03;;
83199;SDS011;73092;49.132;8.920;2023-12-20T00:33:52;16.20;;;7.97;;
83199;SDS011;73092;49.132;8.920;2023-12-20T00:36:18;14.43;;;6.43;;
83199;SDS011;73092;49.132;8.920;2023-12-20T00:38:43;10.60;;;6.53;;
83199;SDS011;73092;49.132;8.920;2023-12-20T00:41:08;16.33;;;7.37;;
83199;SDS011;73092;49.132;8.920;2023-12-20T00:43:34;11.93;;;6.77;;
83199;SDS011;73092;49.132;8.920;2023-12-20T00:45:59;13.40;;;7.53;;
83199;SDS011;73092;49.132;8.920;2023-12-20T00:48:25;14.02;;;6.93;;
83199;SDS011;73092;49.132;8.920;2023-12-20T00:50:52;20.92;;;7.72;;
83199;SDS011;73092;49.132;8.920;2023-12-20T00:53:20;13.48;;;8.23;;
83199;SDS011;73092;49.132;8.920;2023-12-20T00:55:46;16.98;;;7.88;;
83199;SDS011;73092;49.132;8.920;2023-12-20T00:58:11;12.80;;;7.03;;
83199;SDS011;73092;49.132;8.920;2023-12-20T01:00:36;12.33;;;7.67;;
83199;SDS011;73092;49.132;8.920;2023-12-20T01:03:02;16.80;;;7.93;;
83199;SDS011;73092;49.132;8.920;2023-12-20T01:05:27;15.40;;;8.00;;
83199;SDS011;73092;49.132;8.920;2023-12-20T01:07:52;12.13;;;7.30;;
83199;SDS011;73092;49.132;8.920;2023-12-20T01:10:18;12.97;;;7.40;;
83199;SDS011;73092;49.132;8.920;2023-12-20T01:12:43;14.45;;;7.35;;
83199;SDS011;73092;49.132;8.920;2023-12-20T01:15:09;15.98;;;7.55;;
83199;SDS011;73092;49.132;8.920;2023-12-20T01:17:34;13.65;;;7.28;;
83199;SDS011;73092;49.132;8.920;2023-12-20T01:20:00;13.90;;;6.70;;
83199;SDS011;73092;49.132;8.920;2023-12-20T01:22:26;11.45;;;7.22;;
83199;SDS011;73092;49.132;8.920;2023-12-20T01:24:51;12.60;;;7.23;;
83199;SDS011;73092;49.132;8.920;2023-12-20T01:27:16;14.00;;;7.47;;
83199;SDS011;73092;49.132;8.920;2023-12-20T01:29:42;14.13;;;7.60;;
83199;SDS011;73092;49.132;8.920;2023-12-20T01:32:08;13.93;;;7.90;;
83199;SDS011;73092;49.132;8.920;2023-12-20T01:34:33;15.00;;;8.20;;
83199;SDS011;73092;49.132;8.920;2023-12-20T01:36:58;15.10;;;8.18;;
83199;SDS011;73092;49.132;8.920;2023-12-20T01:39:25;16.15;;;8.25;;
83199;SDS011;73092;49.132;8.920;2023-12-20T01:41:50;14.93;;;8.07;;
83199;SDS011;73092;49.132;8.920;2023-12-20T01:44:15;13.83;;;8.07;;
83199;SDS011;73092;49.132;8.920;2023-12-20T01:46:41;13.10;;;7.40;;
83199;SDS011;73092;49.132;8.920;2023-12-20T01:49:06;15.60;;;7.33;;
83199;SDS011;73092;49.132;8.920;2023-12-20T01:51:33;14.15;;;7.75;;
83199;SDS011;73092;49.132;8.920;2023-12-20T01:53:58;12.90;;;6.88;;
83199;SDS011;73092;49.132;8.920;2023-12-20T01:56:25;12.85;;;8.23;;
83199;SDS011;73092;49.132;8.920;2023-12-20T01:58:53;13.18;;;7.00;;
83199;SDS011;73092;49.132;8.920;2023-12-20T02:01:24;11.63;;;7.18;;
83199;SDS011;73092;49.132;8.920;2023-12-20T02:03:49;9.70;;;6.03;;
83199;SDS011;73092;49.132;8.920;2023-12-20T02:06:16;15.50;;;6.75;;
83199;SDS011;73092;49.132;8.920;2023-12-20T02:08:45;11.02;;;6.70;;
83199;SDS011;73092;49.132;8.920;2023-12-20T02:11:10;11.55;;;7.47;;
83199;SDS011;73092;49.132;8.920;2023-12-20T02:13:36;13.82;;;7.40;;
83199;SDS011;73092;49.132;8.920;2023-12-20T02:16:01;12.53;;;6.93;;
83199;SDS011;73092;49.132;8.920;2023-12-20T02:18:27;11.15;;;7.10;;
83199;SDS011;73092;49.132;8.920;2023-12-20T02:20:53;12.02;;;6.50;;
83199;SDS011;73092;49.132;8.920;2023-12-20T02:23:18;11.13;;;6.53;;
83199;SDS011;73092;49.132;8.920;2023-12-20T02:25:44;13.90;;;6.80;;
83199;SDS011;73092;49.132;8.920;2023-12-20T02:28:09;10.35;;;6.15;;
83199;SDS011;73092;49.132;8.920;2023-12-20T02:30:34;8.17;;;5.77;;
83199;SDS011;73092;49.132;8.920;2023-12-20T02:33:00;13.85;;;6.63;;
83199;SDS011;73092;49.132;8.920;2023-12-20T02:35:26;11.82;;;7.38;;
83199;SDS011;73092;49.132;8.920;2023-12-20T02:37:51;11.50;;;5.83;;
83199;SDS011;73092;49.132;8.920;2023-12-20T02:40:16;12.00;;;5.87;;
83199;SDS011;73092;49.132;8.920;2023-12-20T02:42:42;10.60;;;6.63;;
83199;SDS011;73092;49.132;8.920;2023-12-20T02:45:08;16.33;;;6.50;;
83199;SDS011;73092;49.132;8.920;2023-12-20T02:47:33;9.32;;;5.57;;
83199;SDS011;73092;49.132;8.920;2023-12-20T02:49:58;10.63;;;5.43;;
83199;SDS011;73092;49.132;8.920;2023-12-20T02:52:24;9.13;;;5.50;;
83199;SDS011;73092;49.132;8.920;2023-12-20T02:54:50;9.05;;;5.80;;
83199;SDS011;73092;49.132;8.920;2023-12-20T02:57:15;10.73;;;6.20;;
83199;SDS011;73092;49.132;8.920;2023-12-20T02:59:40;16.90;;;6.23;;
83199;SDS011;73092;49.132;8.920;2023-12-20T03:02:06;10.73;;;6.10;;
83199;SDS011;73092;49.132;8.920;2023-12-20T03:04:31;10.70;;;5.40;;
83199;SDS011;73092;49.132;8.920;2023-12-20T03:06:56;13.37;;;6.93;;
83199;SDS011;73092;49.132;8.920;2023-12-20T03:09:21;11.33;;;6.03;;
83199;SDS011;73092;49.132;8.920;2023-12-20T03:11:47;10.30;;;5.67;;
83199;SDS011;73092;49.132;8.920;2023-12-20T03:14:12;11.80;;;5.87;;
83199;SDS011;73092;49.132;8.920;2023-12-20T03:16:37;12.10;;;6.87;;
83199;SDS011;73092;49.132;8.920;2023-12-20T03:19:03;9.50;;;4.93;;
83199;SDS011;73092;49.132;8.920;2023-12-20T03:21:28;13.35;;;7.13;;
83199;SDS011;73092;49.132;8.920;2023-12-20T03:23:54;11.77;;;5.40;;
83199;SDS011;73092;49.132;8.920;2023-12-20T03:26:19;12.73;;;7.13;;
83199;SDS011;73092;49.132;8.920;2023-12-20T03:28:44;10.43;;;6.47;;
83199;SDS011;73092;49.132;8.920;2023-12-20T03:31:09;12.60;;;6.50;;
83199;SDS011;73092;49.132;8.920;2023-12-20T03:33:35;10.45;;;7.03;;
83199;SDS011;73092;49.132;8.920;2023-12-20T03:36:01;11.30;;;5.83;;
83199;SDS011;73092;49.132;8.920;2023-12-20T03:38:26;11.93;;;6.03;;
83199;SDS011;73092;49.132;8.920;2023-12-20T03:40:51;13.43;;;6.43;;
83199;SDS011;73092;49.132;8.920;2023-12-20T03:43:17;10.10;;;5.80;;
83199;SDS011;73092;49.132;8.920;2023-12-20T03:45:42;10.23;;;6.63;;
83199;SDS011;73092;49.132;8.920;2023-12-20T03:48:08;10.13;;;6.07;;
83199;SDS011;73092;49.132;8.920;2023-12-20T03:50:34;11.82;;;5.68;;
83199;SDS011;73092;49.132;8.920;2023-12-20T03:53:00;10.45;;;6.28;;
83199;SDS011;73092;49.132;8.920;2023-12-20T03:55:25;8.20;;;5.60;;
83199;SDS011;73092;49.132;8.920;2023-12-20T03:57:51;12.40;;;6.00;;
83199;SDS011;73092;49.132;8.920;2023-12-20T04:00:16;12.37;;;6.47;;
83199;SDS011;73092;49.132;8.920;2023-12-20T04:02:42;20.40;;;9.00;;
83199;SDS011;73092;49.132;8.920;2023-12-20T04:05:08;8.82;;;5.47;;
83199;SDS011;73092;49.132;8.920;2023-12-20T04:07:36;14.15;;;6.65;;
83199;SDS011;73092;49.132;8.920;2023-12-20T04:10:02;12.93;;;7.00;;
83199;SDS011;73092;49.132;8.920;2023-12-20T04:12:29;11.93;;;6.82;;
83199;SDS011;73092;49.132;8.920;2023-12-20T04:14:54;11.82;;;6.20;;
83199;SDS011;73092;49.132;8.920;2023-12-20T04:17:19;10.40;;;6.17;;
83199;SDS011;73092;49.132;8.920;2023-12-20T04:19:47;9.70;;;6.45;;
83199;SDS011;73092;49.132;8.920;2023-12-20T04:22:12;10.87;;;6.03;;
83199;SDS011;73092;49.132;8.920;2023-12-20T04:24:38;12.75;;;7.20;;
83199;SDS011;73092;49.132;8.920;2023-12-20T04:27:03;9.70;;;5.88;;
83199;SDS011;73092;49.132;8.920;2023-12-20T04:29:29;10.90;;;6.25;;
83199;SDS011;73092;49.132;8.920;2023-12-20T04:31:57;12.53;;;5.20;;
83199;SDS011;73092;49.132;8.920;2023-12-20T04:34:23;9.20;;;5.85;;
83199;SDS011;73092;49.132;8.920;2023-12-20T04:36:51;11.13;;;6.80;;
83199;SDS011;73092;49.132;8.920;2023-12-20T04:39:17;11.52;;;5.90;;
83199;SDS011;73092;49.132;8.920;2023-12-20T04:41:42;11.43;;;6.03;;
83199;SDS011;73092;49.132;8.920;2023-12-20T04:44:08;10.27;;;6.03;;
83199;SDS011;73092;49.132;8.920;2023-12-20T04:46:33;10.40;;;6.37;;
83199;SDS011;73092;49.132;8.920;2023-12-20T04:48:58;9.63;;;6.97;;
83199;SDS011;73092;49.132;8.920;2023-12-20T04:51:24;9.73;;;6.33;;
83199;SDS011;73092;49.132;8.920;2023-12-20T04:53:49;12.70;;;6.72;;
83199;SDS011;73092;49.132;8.920;2023-12-20T04:56:15;9.43;;;6.63;;
83199;SDS011;73092;49.132;8.920;2023-12-20T04:58:40;7.47;;;4.77;;
83199;SDS011;73092;49.132;8.920;2023-12-20T05:01:08;13.02;;;7.00;;
83199;SDS011;73092;49.132;8.920;2023-12-20T05:03:34;10.43;;;6.80;;
83199;SDS011;73092;49.132;8.920;2023-12-20T05:06:00;14.88;;;6.57;;
83199;SDS011;73092;49.132;8.920;2023-12-20T05:08:26;12.70;;;7.25;;
83199;SDS011;73092;49.132;8.920;2023-12-20T05:10:52;18.17;;;8.20;;
83199;SDS011;73092;49.132;8.920;2023-12-20T05:15:44;11.83;;;7.33;;
83199;SDS011;73092;49.132;8.920;2023-12-20T05:18:09;10.65;;;7.10;;
83199;SDS011;73092;49.132;8.920;2023-12-20T05:20:35;13.23;;;8.10;;
83199;SDS011;73092;49.132;8.920;2023-12-20T05:23:00;10.30;;;6.68;;
83199;SDS011;73092;49.132;8.920;2023-12-20T05:25:25;12.13;;;7.93;;
83199;SDS011;73092;49.132;8.920;2023-12-20T05:27:51;11.80;;;7.27;;
83199;SDS011;73092;49.132;8.920;2023-12-20T05:30:19;12.67;;;7.77;;
83199;SDS011;73092;49.132;8.920;2023-12-20T05:32:44;13.02;;;8.15;;
83199;SDS011;73092;49.132;8.920;2023-12-20T05:35:09;14.23;;;7.67;;
83199;SDS011;73092;49.132;8.920;2023-12-20T05:37:38;11.68;;;7.55;;
83199;SDS011;73092;49.132;8.920;2023-12-20T05:40:03;13.97;;;9.10;;
83199;SDS011;73092;49.132;8.920;2023-12-20T05:42:29;11.10;;;8.00;;
83199;SDS011;73092;49.132;8.920;2023-12-20T05:44:54;10.60;;;6.90;;
83199;SDS011;73092;49.132;8.920;2023-12-20T05:47:20;12.98;;;8.55;;
83199;SDS011;73092;49.132;8.920;2023-12-20T05:49:45;14.83;;;8.73;;
83199;SDS011;73092;49.132;8.920;2023-12-20T05:52:11;13.27;;;8.43;;
83199;SDS011;73092;49.132;8.920;2023-12-20T05:54:39;14.23;;;9.30;;
83199;SDS011;73092;49.132;8.920;2023-12-20T05:57:05;16.73;;;8.88;;
83199;SDS011;73092;49.132;8.920;2023-12-20T05:59:30;17.83;;;8.87;;
83199;SDS011;73092;49.132;8.920;2023-12-20T06:01:58;19.48;;;9.77;;
83199;SDS011;73092;49.132;8.920;2023-12-20T06:04:24;15.73;;;9.38;;
83199;SDS011;73092;49.132;8.920;2023-12-20T06:06:50;14.37;;;9.23;;
83199;SDS011;73092;49.132;8.920;2023-12-20T06:09:15;18.43;;;10.33;;
83199;SDS011;73092;49.132;8.920;2023-12-20T06:11:40;20.53;;;10.17;;
83199;SDS011;73092;49.132;8.920;2023-12-20T06:14:06;20.07;;;10.80;;
83199;SDS011;73092;49.132;8.920;2023-12-20T06:16:31;18.25;;;10.80;;
83199;SDS011;73092;49.132;8.920;2023-12-20T06:18:56;17.70;;;10.73;;
83199;SDS011;73092;49.132;8.920;2023-12-20T06:21:22;23.27;;;11.83;;
83199;SDS011;73092;49.132;8.920;2023-12-20T06:23:47;17.80;;;10.70;;
83199;SDS011;73092;49.132;8.920;2023-12-20T06:26:12;18.60;;;11.07;;
83199;SDS011;73092;49.132;8.920;2023-12-20T06:28:38;19.80;;;10.63;;
83199;SDS011;73092;49.132;8.920;2023-12-20T06:31:03;17.27;;;10.93;;
83199;SDS011;73092;49.132;8.920;2023-12-20T06:33:29;17.70;;;10.93;;
83199;SDS011;73092;49.132;8.920;2023-12-20T06:35:56;21.00;;;10.82;;
83199;SDS011;73092;49.132;8.920;2023-12-20T06:38:21;19.73;;;11.27;;
83199;SDS011;73092;49.132;8.920;2023-12-20T06:40:46;19.27;;;10.47;;
83199;SDS011;73092;49.132;8.920;2023-12-20T06:43:12;20.90;;;11.70;;
83199;SDS011;73092;49.132;8.920;2023-12-20T06:45:38;19.60;;;11.77;;
83199;SDS011;73092;49.132;8.920;2023-12-20T06:48:04;25.90;;;11.93;;
83199;SDS011;73092;49.132;8.920;2023-12-20T06:50:29;21.08;;;11.10;;
83199;SDS011;73092;49.132;8.920;2023-12-20T06:52:55;20.27;;;11.27;;
83199;SDS011;73092;49.132;8.920;2023-12-20T06:55:20;20.13;;;12.77;;
83199;SDS011;73092;49.132;8.920;2023-12-20T06:57:45;17.83;;;9.90;;
83199;SDS011;73092;49.132;8.920;2023-12-20T07:00:11;21.90;;;11.82;;
83199;SDS011;73092;49.132;8.920;2023-12-20T07:02:36;19.15;;;11.38;;
83199;SDS011;73092;49.132;8.920;2023-12-20T07:05:02;20.63;;;10.35;;
83199;SDS011;73092;49.132;8.920;2023-12-20T07:07:27;18.77;;;10.35;;
83199;SDS011;73092;49.132;8.920;2023-12-20T07:09:53;17.77;;;9.93;;
83199;SDS011;73092;49.132;8.920;2023-12-20T07:12:18;19.93;;;10.17;;
83199;SDS011;73092;49.132;8.920;2023-12-20T07:14:44;16.23;;;9.25;;
83199;SDS011;73092;49.132;8.920;2023-12-20T07:17:10;18.55;;;10.50;;
83199;SDS011;73092;49.132;8.920;2023-12-20T07:22:04;14.45;;;7.78;;
83199;SDS011;73092;49.132;8.920;2023-12-20T07:24:30;19.70;;;10.75;;
83199;SDS011;73092;49.132;8.920;2023-12-20T07:26:56;15.52;;;10.45;;
83199;SDS011;73092;49.132;8.920;2023-12-20T07:29:21;16.73;;;9.80;;
83199;SDS011;73092;49.132;8.920;2023-12-20T07:31:46;16.57;;;9.73;;
83199;SDS011;73092;49.132;8.920;2023-12-20T07:34:12;15.85;;;8.68;;
83199;SDS011;73092;49.132;8.920;2023-12-20T07:36:37;13.30;;;7.97;;
83199;SDS011;73092;49.132;8.920;2023-12-20T07:39:02;15.73;;;9.53;;
83199;SDS011;73092;49.132;8.920;2023-12-20T07:41:28;15.27;;;8.30;;
83199;SDS011;73092;49.132;8.920;2023-12-20T07:43:53;18.08;;;9.32;;
83199;SDS011;73092;49.132;8.920;2023-12-20T07:46:20;14.65;;;8.77;;
83199;SDS011;73092;49.132;8.920;2023-12-20T07:48:48;17.60;;;8.65;;
83199;SDS011;73092;49.132;8.920;2023-12-20T07:51:14;14.27;;;8.52;;
83199;SDS011;73092;49.132;8.920;2023-12-20T07:53:39;13.77;;;8.00;;
83199;SDS011;73092;49.132;8.920;2023-12-20T07:56:14;15.70;;;8.37;;
83199;SDS011;73092;49.132;8.920;2023-12-20T07:58:43;16.17;;;9.77;;
83199;SDS011;73092;49.132;8.920;2023-12-20T08:01:10;15.48;;;8.88;;
83199;SDS011;73092;49.132;8.920;2023-12-20T08:03:36;17.85;;;9.90;;
83199;SDS011;73092;49.132;8.920;2023-12-20T08:06:02;19.42;;;9.25;;
83199;SDS011;73092;49.132;8.920;2023-12-20T08:08:28;15.25;;;8.43;;
83199;SDS011;73092;49.132;8.920;2023-12-20T08:10:53;13.43;;;7.97;;
83199;SDS011;73092;49.132;8.920;2023-12-20T08:13:18;14.63;;;8.48;;
83199;SDS011;73092;49.132;8.920;2023-12-20T08:15:44;13.83;;;7.37;;
83199;SDS011;73092;49.132;8.920;2023-12-20T08:18:09;12.67;;;8.10;;
83199;SDS011;73092;49.132;8.920;2023-12-20T08:20:34;11.73;;;7.57;;
83199;SDS011;73092;49.132;8.920;2023-12-20T08:23:00;11.63;;;7.50;;
83199;SDS011;73092;49.132;8.920;2023-12-20T08:25:25;12.52;;;7.07;;
83199;SDS011;73092;49.132;8.920;2023-12-20T08:27:51;11.63;;;7.67;;
83199;SDS011;73092;49.132;8.920;2023-12-20T08:30:16;12.87;;;7.23;;
83199;SDS011;73092;49.132;8.920;2023-12-20T08:32:47;12.38;;;6.93;;
83199;SDS011;73092;49.132;8.920;2023-12-20T08:35:13;18.33;;;8.38;;
83199;SDS011;73092;49.132;8.920;2023-12-20T08:37:38;11.67;;;7.23;;
83199;SDS011;73092;49.132;8.920;2023-12-20T08:40:04;12.60;;;7.73;;
83199;SDS011;73092;49.132;8.920;2023-12-20T08:42:30;10.88;;;7.43;;
83199;SDS011;73092;49.132;8.920;2023-12-20T08:44:57;13.90;;;7.38;;
83199;SDS011;73092;49.132;8.920;2023-12-20T08:47:26;11.40;;;7.93;;
83199;SDS011;73092;49.132;8.920;2023-12-20T08:49:51;9.40;;;6.70;;
83199;SDS011;73092;49.132;8.920;2023-12-20T08:52:21;15.95;;;7.30;;
83199;SDS011;73092;49.132;8.920;2023-12-20T08:54:49;9.48;;;6.43;;
83199;SDS011;73092;49.132;8.920;2023-12-20T08:57:21;8.13;;;5.55;;
83199;SDS011;73092;49.132;8.920;2023-12-20T08:59:50;9.15;;;6.82;;
83199;SDS011;73092;49.132;8.920;2023-12-20T09:02:16;10.63;;;6.73;;
83199;SDS011;73092;49.132;8.920;2023-12-20T09:04:42;10.95;;;6.60;;
83199;SDS011;73092;49.132;8.920;2023-12-20T09:07:20;10.25;;;5.97;;
83199;SDS011;73092;49.132;8.920;2023-12-20T09:09:52;10.00;;;6.60;;
83199;SDS011;73092;49.132;8.920;2023-12-20T09:12:21;14.13;;;6.90;;
83199;SDS011;73092;49.132;8.920;2023-12-20T09:14:49;12.48;;;6.60;;
83199;SDS011;73092;49.132;8.920;2023-12-20T09:17:16;9.88;;;6.70;;
83199;SDS011;73092;49.132;8.920;2023-12-20T09:19:42;12.77;;;6.38;;
83199;SDS011;73092;49.132;8.920;2023-12-20T09:22:11;9.10;;;5.32;;
83199;SDS011;73092;49.132;8.920;2023-12-20T09:24:37;16.80;;;5.60;;
83199;SDS011;73092;49.132;8.920;2023-12-20T09:27:03;8.30;;;5.07;;
83199;SDS011;73092;49.132;8.920;2023-12-20T09:29:30;11.32;;;5.35;;
83199;SDS011;73092;49.132;8.920;2023-12-20T09:31:55;10.15;;;5.47;;
83199;SDS011;73092;49.132;8.920;2023-12-20T09:34:22;6.18;;;4.25;;
83199;SDS011;73092;49.132;8.920;2023-12-20T09:36:48;9.65;;;4.32;;
83199;SDS011;73092;49.132;8.920;2023-12-20T09:39:13;6.90;;;4.97;;
83199;SDS011;73092;49.132;8.920;2023-12-20T09:41:42;13.25;;;4.72;;
83199;SDS011;73092;49.132;8.920;2023-12-20T09:44:11;7.63;;;4.30;;
83199;SDS011;73092;49.132;8.920;2023-12-20T09:46:39;9.68;;;5.32;;
83199;SDS011;73092;49.132;8.920;2023-12-20T09:49:08;9.07;;;4.15;;
83199;SDS011;73092;49.132;8.920;2023-12-20T09:51:34;7.78;;;3.65;;
83199;SDS011;73092;49.132;8.920;2023-12-20T09:54:00;7.60;;;3.63;;
83199;SDS011;73092;49.132;8.920;2023-12-20T09:56:30;10.68;;;3.85;;
83199;SDS011;73092;49.132;8.920;2023-12-20T09:58:56;9.10;;;3.83;;
83199;SDS011;73092;49.132;8.920;2023-12-20T10:01:21;7.88;;;3.67;;
83199;SDS011;73092;49.132;8.920;2023-12-20T10:03:48;7.85;;;3.63;;
83199;SDS011;73092;49.132;8.920;2023-12-20T10:06:16;5.45;;;3.45;;
83199;SDS011;73092;49.132;8.920;2023-12-20T10:08:42;11.40;;;4.50;;
83199;SDS011;73092;49.132;8.920;2023-12-20T10:11:07;13.43;;;4.27;;
83199;SDS011;73092;49.132;8.920;2023-12-20T10:13:32;10.77;;;3.92;;
83199;SDS011;73092;49.132;8.920;2023-12-20T10:15:59;7.03;;;3.60;;
83199;SDS011;73092;49.132;8.920;2023-12-20T10:18:24;14.75;;;4.00;;
83199;SDS011;73092;49.132;8.920;2023-12-20T10:20:52;20.83;;;4.33;;
83199;SDS011;73092;49.132;8.920;2023-12-20T10:23:18;7.82;;;3.42;;
83199;SDS011;73092;49.132;8.920;2023-12-20T10:25:47;6.63;;;3.75;;
83199;SDS011;73092;49.132;8.920;2023-12-20T10:28:20;10.98;;;4.25;;
83199;SDS011;73092;49.132;8.920;2023-12-20T10:33:13;12.20;;;3.90;;
83199;SDS011;73092;49.132;8.920;2023-12-20T10:35:49;8.73;;;4.30;;
83199;SDS011;73092;49.132;8.920;2023-12-20T10:38:15;10.30;;;3.67;;
83199;SDS011;73092;49.132;8.920;2023-12-20T10:40:40;11.13;;;3.75;;
83199;SDS011;73092;49.132;8.920;2023-12-20T10:43:06;6.55;;;3.85;;
83199;SDS011;73092;49.132;8.920;2023-12-20T10:45:33;10.07;;;3.65;;
83199;SDS011;73092;49.132;8.920;2023-12-20T10:47:59;10.65;;;4.50;;
83199;SDS011;73092;49.132;8.920;2023-12-20T10:50:27;10.60;;;3.70;;
83199;SDS011;73092;49.132;8.920;2023-12-20T10:52:54;7.15;;;3.65;;
83199;SDS011;73092;49.132;8.920;2023-12-20T10:55:21;4.93;;;3.38;;
83199;SDS011;73092;49.132;8.920;2023-12-20T10:57:47;10.82;;;4.25;;
83199;SDS011;73092;49.132;8.920;2023-12-20T11:00:20;17.65;;;4.28;;
83199;SDS011;73092;49.132;8.920;2023-12-20T11:02:48;12.32;;;3.78;;
83199;SDS011;73092;49.132;8.920;2023-12-20T11:11:20;6.45;;;3.67;;
83199;SDS011;73092;49.132;8.920;2023-12-20T11:13:40;12.60;;;4.50;;
83199;SDS011;73092;49.132;8.920;2023-12-20T11:16:13;9.27;;;3.92;;
83199;SDS011;73092;49.132;8.920;2023-12-20T11:18:38;10.63;;;3.42;;
83199;SDS011;73092;49.132;8.920;2023-12-20T11:21:05;11.93;;;4.22;;
83199;SDS011;73092;49.132;8.920;2023-12-20T11:23:34;7.47;;;3.80;;
83199;SDS011;73092;49.132;8.920;2023-12-20T11:26:00;8.07;;;3.40;;
83199;SDS011;73092;49.132;8.920;2023-12-20T11:28:26;6.68;;;3.33;;
83199;SDS011;73092;49.132;8.920;2023-12-20T11:30:53;12.75;;;5.47;;
83199;SDS011;73092;49.132;8.920;2023-12-20T11:35:48;9.73;;;3.83;;
83199;SDS011;73092;49.132;8.920;2023-12-20T11:38:14;6.10;;;3.40;;
83199;SDS011;73092;49.132;8.920;2023-12-20T11:40:41;10.10;;;4.03;;
83199;SDS011;73092;49.132;8.920;2023-12-20T11:43:07;11.45;;;3.78;;
83199;SDS011;73092;49.132;8.920;2023-12-20T11:45:32;9.57;;;4.68;;
83199;SDS011;73092;49.132;8.920;2023-12-20T11:48:00;6.28;;;3.80;;
83199;SDS011;73092;49.132;8.920;2023-12-20T11:50:27;12.75;;;4.13;;
83199;SDS011;73092;49.132;8.920;2023-12-20T11:52:54;8.77;;;3.75;;
83199;SDS011;73092;49.132;8.920;2023-12-20T11:55:20;12.90;;;4.55;;
83199;SDS011;73092;49.132;8.920;2023-12-20T11:57:46;8.93;;;4.25;;
83199;SDS011;73092;49.132;8.920;2023-12-20T12:00:12;9.40;;;4.40;;
83199;SDS011;73092;49.132;8.920;2023-12-20T12:02:38;11.82;;;4.63;;
83199;SDS011;73092;49.132;8.920;2023-12-20T12:05:04;9.20;;;3.80;;
83199;SDS011;73092;49.132;8.920;2023-12-20T12:07:33;10.52;;;4.07;;
83199;SDS011;73092;49.132;8.920;2023-12-20T12:09:59;12.82;;;4.65;;
83199;SDS011;73092;49.132;8.920;2023-12-20T12:12:25;12.02;;;4.72;;
83199;SDS011;73092;49.132;8.920;2023-12-20T12:14:52;10.52;;;4.45;;
83199;SDS011;73092;49.132;8.920;2023-12-20T12:17:18;9.63;;;4.35;;
83199;SDS011;73092;49.132;8.920;2023-12-20T12:19:43;14.95;;;5.03;;
83199;SDS011;73092;49.132;8.920;2023-12-20T12:22:10;10.93;;;4.55;;
83199;SDS011;73092;49.132;8.920;2023-12-20T12:24:41;12.65;;;5.15;;
83199;SDS011;73092;49.132;8.920;2023-12-20T12:27:11;13.57;;;4.28;;
83199;SDS011;73092;49.132;8.920;2023-12-20T12:29:37;9.80;;;4.35;;
83199;SDS011;73092;49.132;8.920;2023-12-20T12:32:06;15.70;;;5.32;;
83199;SDS011;73092;49.132;8.920;2023-12-20T12:34:33;15.40;;;4.22;;
83199;SDS011;73092;49.132;8.920;2023-12-20T12:37:01;10.48;;;4.60;;
83199;SDS011;73092;49.132;8.920;2023-12-20T12:39:29;16.08;;;5.15;;
83199;SDS011;73092;49.132;8.920;2023-12-20T12:41:54;13.10;;;5.18;;
83199;SDS011;73092;49.132;8.920;2023-12-20T12:44:24;11.80;;;4.78;;
83199;SDS011;73092;49.132;8.920;2023-12-20T12:46:50;13.60;;;4.72;;
83199;SDS011;73092;49.132;8.920;2023-12-20T12:49:16;15.65;;;4.82;;
83199;SDS011;73092;49.132;8.920;2023-12-20T12:51:42;7.75;;;4.40;;
83199;SDS011;73092;49.132;8.920;2023-12-20T12:54:08;18.17;;;4.88;;
83199;SDS011;73092;49.132;8.920;2023-12-20T12:56:35;13.98;;;4.75;;
83199;SDS011;73092;49.132;8.920;2023-12-20T12:59:00;11.07;;;4.72;;
83199;SDS011;73092;49.132;8.920;2023-12-20T13:01:26;15.40;;;5.38;;
83199;SDS011;73092;49.132;8.920;2023-12-20T13:03:51;18.90;;;4.97;;
83199;SDS011;73092;49.132;8.920;2023-12-20T13:06:17;18.03;;;4.73;;
83199;SDS011;73092;49.132;8.920;2023-12-20T13:08:42;13.10;;;5.40;;
83199;SDS011;73092;49.132;8.920;2023-12-20T13:11:08;13.07;;;4.45;;
83199;SDS011;73092;49.132;8.920;2023-12-20T13:13:34;12.70;;;4.33;;
83199;SDS011;73092;49.132;8.920;2023-12-20T13:15:59;13.27;;;4.57;;
83199;SDS011;73092;49.132;8.920;2023-12-20T13:18:25;11.05;;;4.47;;
83199;SDS011;73092;49.132;8.920;2023-12-20T13:20:51;17.10;;;4.82;;
83199;SDS011;73092;49.132;8.920;2023-12-20T13:23:16;15.27;;;5.13;;
83199;SDS011;73092;49.132;8.920;2023-12-20T13:25:43;19.52;;;5.00;;
83199;SDS011;73092;49.132;8.920;2023-12-20T13:28:10;20.10;;;5.93;;
83199;SDS011;73092;49.132;8.920;2023-12-20T13:30:36;8.90;;;4.35;;
83199;SDS011;73092;49.132;8.920;2023-12-20T13:33:01;11.10;;;3.95;;
83199;SDS011;73092;49.132;8.920;2023-12-20T13:35:26;11.87;;;5.27;;
83199;SDS011;73092;49.132;8.920;2023-12-20T13:37:52;14.70;;;4.97;;
83199;SDS011;73092;49.132;8.920;2023-12-20T13:40:17;17.03;;;5.70;;
83199;SDS011;73092;49.132;8.920;2023-12-20T13:42:43;17.45;;;4.68;;
83199;SDS011;73092;49.132;8.920;2023-12-20T13:45:09;18.97;;;5.30;;
83199;SDS011;73092;49.132;8.920;2023-12-20T13:47:34;12.07;;;5.55;;
83199;SDS011;73092;49.132;8.920;2023-12-20T13:50:00;19.90;;;7.97;;
83199;SDS011;73092;49.132;8.920;2023-12-20T13:52:26;8.38;;;4.57;;
83199;SDS011;73092;49.132;8.920;2023-12-20T13:54:51;16.23;;;4.80;;
83199;SDS011;73092;49.132;8.920;2023-12-20T13:57:16;12.40;;;5.33;;
83199;SDS011;73092;49.132;8.920;2023-12-20T13:59:41;15.60;;;5.13;;
83199;SDS011;73092;49.132;8.920;2023-12-20T14:02:07;12.10;;;4.82;;
83199;SDS011;73092;49.132;8.920;2023-12-20T14:04:32;9.70;;;4.27;;
83199;SDS011;73092;49.132;8.920;2023-12-20T14:06:58;12.90;;;4.33;;
83199;SDS011;73092;49.132;8.920;2023-12-20T14:09:26;9.43;;;4.83;;
83199;SDS011;73092;49.132;8.920;2023-12-20T14:11:54;20.65;;;5.18;;
83199;SDS011;73092;49.132;8.920;2023-12-20T14:14:20;9.53;;;4.77;;
83199;SDS011;73092;49.132;8.920;2023-12-20T14:16:45;19.52;;;5.68;;
83199;SDS011;73092;49.132;8.920;2023-12-20T14:19:11;10.87;;;4.40;;
83199;SDS011;73092;49.132;8.920;2023-12-20T14:21:36;10.77;;;4.82;;
83199;SDS011;73092;49.132;8.920;2023-12-20T14:24:01;15.30;;;6.23;;
83199;SDS011;73092;49.132;8.920;2023-12-20T14:26:28;14.73;;;5.07;;
83199;SDS011;73092;49.132;8.920;2023-12-20T14:28:54;11.98;;;5.07;;
83199;SDS011;73092;49.132;8.920;2023-12-20T14:31:19;11.17;;;5.23;;
83199;SDS011;73092;49.132;8.920;2023-12-20T14:33:45;8.43;;;4.38;;
83199;SDS011;73092;49.132;8.920;2023-12-20T14:36:11;13.00;;;4.55;;
83199;SDS011;73092;49.132;8.920;2023-12-20T14:38:36;15.95;;;6.32;;
83199;SDS011;73092;49.132;8.920;2023-12-20T14:41:02;9.88;;;5.72;;
83199;SDS011;73092;49.132;8.920;2023-12-20T14:43:29;14.82;;;5.30;;
83199;SDS011;73092;49.132;8.920;2023-12-20T14:45:54;13.80;;;5.85;;